Latest Weather Observations for Pirlangimpi

IDD60901

Issued at 7:51 am CST Sunday 2 October 2016 (issued every 10 minutes, with the page automatically refreshed every 10 minutes)

About weather observations | Map of Darwin area stations | Latest observations for Darwin area | Other Formats
Station Details ID: 014142 Name: PIRLANGIMPI AIRPORT Lat: -11.40 Lon: 130.42 Height: 18.3 m
Data from the previous 72 hours. | See also: Recent months at Pirlangimpi
Date/Time
CST
Temp
°C
App
Temp
°C
Dew
Point
°C
Rel
Hum
%
Delta-T
°C
Wind Press
QNH
hPa
Press
MSL
hPa
Rain since
9am
mm
Dir  Spd
km/h
Gust
km/h
Spd
kts
Gust
kts
02/07:30am 25.6 32.0 24.9 96 0.5 CALM 0 0 0 0 1011.8 1011.7 0.2
02/07:00am 24.4 29.6 23.5 95 0.6 ENE 2 2 1 1 1011.5 1011.4 0.2
02/06:30am 23.8 28.2 22.8 94 0.7 ENE 4 4 2 2 1011.1 1011.0 0.2
02/06:00am 24.0 29.3 23.0 94 0.7 CALM 0 0 0 0 1010.8 1010.7 0.2
02/05:30am 24.2 29.6 23.2 94 0.7 CALM 0 0 0 0 1010.6 1010.5 0.2
02/05:00am 24.1 29.4 23.1 94 0.7 CALM 0 0 0 0 1010.5 1010.4 0.2
02/04:30am 24.2 29.5 23.0 93 0.8 CALM 0 0 0 0 1010.2 1010.1 0.2
02/04:00am 24.5 30.1 23.5 94 0.7 CALM 0 0 0 0 1010.3 1010.2 0.2
02/03:30am 24.7 30.3 23.5 93 0.8 CALM 0 0 0 0 1010.4 1010.3 0.2
02/03:00am 24.6 30.1 23.4 93 0.8 CALM 0 0 0 0 1010.6 1010.5 0.2
02/02:30am 24.9 30.6 23.7 93 0.8 CALM 0 0 0 0 1010.8 1010.7 0.2
02/02:00am 25.2 30.9 23.8 92 1.0 CALM 0 0 0 0 1010.9 1010.8 0.2
02/01:30am 25.4 31.2 24.0 92 1.0 CALM 0 0 0 0 1011.1 1011.0 0.2
02/01:00am 25.4 31.1 23.8 91 1.1 CALM 0 0 0 0 1011.3 1011.2 0.2
02/12:30am 25.4 31.0 23.5 89 1.3 CALM 0 0 0 0 1011.4 1011.3 0.2
02/12:00am 25.4 31.0 23.6 90 1.2 CALM 0 0 0 0 1011.5 1011.4 0.2
 
Date/Time
CST
Temp
°C
App
Temp
°C
Dew
Point
°C
Rel
Hum
%
Delta-T
°C
Wind Press
QNH
hPa
Press
MSL
hPa
Rain since
9am
mm
Dir  Spd
km/h
Gust
km/h
Spd
kts
Gust
kts
01/11:30pm 25.7 31.4 23.7 89 1.4 CALM 0 0 0 0 1011.4 1011.3 0.2
01/11:00pm 26.0 31.8 24.0 89 1.4 CALM 0 0 0 0 1011.5 1011.4 0.2
01/10:30pm 25.9 30.9 23.8 88 1.4 SE 4 6 2 3 1011.6 1011.5 0.2
01/10:00pm 26.4 32.2 23.9 86 1.7 CALM 0 0 0 0 1011.3 1011.2 0.2
01/09:30pm 26.7 32.2 24.0 85 1.9 SSE 2 4 1 2 1011.1 1011.0 0.2
01/09:00pm 26.5 32.3 24.0 86 1.7 CALM 0 2 0 1 1010.7 1010.6 0.2
01/08:30pm 26.9 32.7 24.0 84 2.0 CALM 0 0 0 0 1010.4 1010.3 0.2
01/08:00pm 27.3 33.1 24.0 82 2.3 CALM 0 0 0 0 1009.8 1009.7 0.2
01/07:30pm 27.7 32.7 23.9 80 2.6 SSE 4 6 2 3 1009.8 1009.7 0.2
01/07:00pm 28.2 33.2 23.8 77 3.0 S 4 6 2 3 1009.6 1009.5 0.2
01/06:30pm 29.0 33.5 23.7 73 3.7 SW 6 7 3 4 1009.0 1008.9 0.2
01/06:00pm 29.9 34.6 23.3 67 4.5 WNW 4 9 2 5 1008.7 1008.6 0.2
01/05:30pm 30.8 34.9 23.2 64 5.2 NNW 7 17 4 9 1008.6 1008.5 0.2
01/05:00pm 31.2 35.8 24.1 66 4.9 NNW 7 17 4 9 1008.5 1008.4 0.2
01/04:30pm 29.5 33.6 23.0 68 4.5 SW 6 9 3 5 1008.5 1008.4 0.2
01/04:00pm 30.4 33.4 23.3 66 4.9 NNW 13 22 7 12 1008.4 1008.3 0.2
01/03:30pm 32.9 36.5 23.8 58 6.3 NW 11 24 6 13 1008.6 1008.5 0.2
01/03:00pm 33.4 37.4 23.7 56 6.8 NNW 9 17 5 9 1008.9 1008.8 0.2
01/02:30pm 33.0 36.6 23.0 55 6.9 NNW 9 15 5 8 1009.2 1009.1 0.2
01/02:00pm 34.0 37.0 22.7 51 7.8 NW 11 20 6 11 1009.5 1009.4 0.2
01/01:30pm 33.3 36.2 22.4 52 7.5 NW 11 19 6 10 1009.8 1009.7 0.2
01/01:00pm 33.5 36.2 21.3 48 8.2 NW 9 13 5 7 1010.2 1010.1 0.2
01/12:30pm 33.0 36.5 22.1 52 7.4 W 7 11 4 6 1010.6 1010.5 0.2
01/12:00pm 32.8 35.7 20.7 49 8.1 WNW 6 9 3 5 1011.2 1011.1 0.2
01/11:30am 32.1 35.9 22.8 58 6.4 WNW 7 13 4 7 1011.5 1011.4 0.2
01/11:00am 31.8 35.0 21.6 54 6.9 WNW 7 9 4 5 1011.8 1011.7 0.2
01/10:30am 31.5 35.7 22.5 59 6.2 WNW 4 7 2 4 1012.0 1011.9 0.2
01/10:00am 30.5 35.2 23.9 68 4.6 W 6 9 3 5 1012.1 1012.0 0.0
01/09:30am 29.9 34.4 23.6 69 4.4 WSW 6 11 3 6 1012.2 1012.1 0.0
01/09:00am 29.8 35.0 23.5 69 4.3 NNE 2 4 1 2 1012.1 1012.0 0.2
01/08:30am 28.7 33.8 24.0 76 3.3 NE 4 6 2 3 1011.9 1011.8 0.2
01/08:00am 26.9 33.3 24.9 89 1.4 CALM 0 4 0 2 1011.6 1011.5 0.2
01/07:30am 24.9 30.4 24.0 95 0.6 NE 2 2 1 1 1011.0 1010.9 0.2
01/07:00am 23.9 28.8 23.0 95 0.6 ENE 2 4 1 2 1010.6 1010.5 0.2
01/06:30am 23.6 28.3 22.6 94 0.7 ENE 2 6 1 3 1010.2 1010.1 0.2
01/06:00am 23.8 29.0 22.8 94 0.7 CALM 0 0 0 0 1009.8 1009.7 0.2
01/05:30am 23.8 28.6 22.8 94 0.7 NE 2 4 1 2 1009.4 1009.3 0.2
01/05:00am 23.8 28.6 22.8 94 0.7 NNE 2 2 1 1 1009.1 1009.0 0.2
01/04:30am 23.8 28.2 22.8 94 0.7 NE 4 7 2 4 1009.0 1008.9 0.2
01/04:00am 23.9 28.7 22.9 94 0.7 NE 2 2 1 1 1008.9 1008.8 0.2
01/03:30am 24.0 29.3 23.0 94 0.7 CALM 0 0 0 0 1008.9 1008.8 0.2
01/03:00am 24.0 29.2 22.8 93 0.8 CALM 0 0 0 0 1008.7 1008.6 0.2
01/02:30am 24.4 29.3 23.0 92 0.9 ENE 2 2 1 1 1009.0 1008.9 0.2
01/02:00am 24.4 29.8 23.2 93 0.8 CALM 0 4 0 2 1009.0 1008.9 0.2
01/01:30am 24.4 29.7 23.0 92 0.9 CALM 0 0 0 0 1009.1 1009.0 0.2
01/01:00am 24.5 29.8 23.1 92 0.9 CALM 0 0 0 0 1009.4 1009.3 0.2
01/12:30am 24.6 30.0 23.2 92 1.0 CALM 0 0 0 0 1009.6 1009.5 0.2
01/12:00am 24.7 29.6 23.1 91 1.1 NE 2 4 1 2 1009.6 1009.5 0.2
 
Date/Time
CST
Temp
°C
App
Temp
°C
Dew
Point
°C
Rel
Hum
%
Delta-T
°C
Wind Press
QNH
hPa
Press
MSL
hPa
Rain since
9am
mm
Dir  Spd
km/h
Gust
km/h
Spd
kts
Gust
kts
30/11:30pm 24.8 29.3 23.0 90 1.2 NE 4 6 2 3 1009.7 1009.6 0.2
30/11:00pm 25.3 30.8 23.4 89 1.3 CALM 0 0 0 0 1010.0 1009.9 0.2
30/10:30pm 25.9 30.9 23.8 88 1.4 NE 4 6 2 3 1009.9 1009.8 0.2
30/10:00pm 25.5 30.1 23.2 87 1.6 N 4 7 2 4 1009.5 1009.4 0.2
30/09:30pm 25.7 31.3 23.6 88 1.4 CALM 0 0 0 0 1009.3 1009.2 0.2
30/09:00pm 26.2 31.0 23.5 85 1.8 NNE 4 6 2 3 1009.0 1008.9 0.2
30/08:30pm 26.7 31.7 23.8 84 2.0 NE 4 6 2 3 1008.8 1008.7 0.2
30/08:00pm 26.9 31.9 23.8 83 2.1 N 4 6 2 3 1008.3 1008.2 0.2
30/07:30pm 27.2 32.3 23.4 80 2.6 N 2 4 1 2 1008.0 1007.9 0.2
30/07:00pm 27.9 32.6 23.3 76 3.1 N 4 6 2 3 1007.7 1007.6 0.2
30/06:30pm 29.4 34.3 23.1 69 4.3 NNW 2 6 1 3 1007.6 1007.5 0.2
30/06:00pm 30.0 34.6 23.2 67 4.7 NNW 4 7 2 4 1007.4 1007.3 0.2
30/05:30pm 30.6 34.9 23.3 65 5.0 NW 6 9 3 5 1007.4 1007.3 0.2
30/05:00pm 30.6 35.7 24.0 68 4.6 W 4 7 2 4 1007.3 1007.2 0.2
30/04:30pm 30.4 35.7 24.3 70 4.3 WSW 4 7 2 4 1007.5 1007.4 0.2
30/04:00pm 30.0 35.8 24.6 73 3.8 NNE 2 7 1 4 1007.6 1007.5 0.2
30/03:30pm 28.9 33.7 24.2 76 3.3 ENE 6 7 3 4 1007.9 1007.8 0.2
30/03:00pm 28.1 32.9 24.1 79 2.8 NE 6 9 3 5 1008.3 1008.2 0.2
30/02:30pm 26.8 31.3 23.7 83 2.1 E 6 13 3 7 1008.6 1008.5 0.2
30/02:00pm 25.9 30.2 23.6 87 1.6 SSE 7 15 4 8 1008.9 1008.8 0.2
30/01:30pm 27.2 30.1 22.4 75 3.2 SW 11 15 6 8 1009.3 1009.2 0.0
30/01:00pm 29.7 33.9 23.4 69 4.3 WNW 7 17 4 9 1009.2 1009.1 0.0
30/12:30pm 32.7 37.1 24.5 62 5.8 NW 9 19 5 10 1009.5 1009.4 0.0
30/12:00pm 32.6 37.3 24.9 64 5.4 NW 9 15 5 8 1009.9 1009.8 0.0
30/11:30am 32.4 37.3 24.4 62 5.6 W 6 11 3 6 1010.3 1010.2 0.0
30/11:00am 32.2 37.5 24.3 63 5.5 NW 4 7 2 4 1010.8 1010.7 0.0
30/10:30am 31.3 36.6 24.4 66 4.8 W 4 7 2 4 1011.0 1010.9 0.0
30/10:00am 30.6 35.6 23.8 67 4.7 WNW 4 7 2 4 1011.0 1010.9 0.0
30/09:30am 30.7 36.2 24.6 70 4.3 WNW 4 6 2 3 1010.6 1010.5 0.0
30/09:00am 29.3 35.4 24.4 75 3.4 CALM 0 0 0 0 1010.3 1010.2 3.0
30/08:30am 28.7 34.1 24.5 78 2.9 SE 4 6 2 3 1010.0 1009.9 3.0
30/08:00am 27.7 33.2 24.7 84 2.1 ENE 4 6 2 3 1009.6 1009.5 3.0
30/07:30am 26.3 32.1 24.5 90 1.2 NE 2 6 1 3 1009.1 1009.0 3.0
30/07:00am 25.0 30.4 23.8 93 0.8 NNE 2 4 1 2 1008.7 1008.6 3.0
30/06:30am 24.6 29.3 23.4 93 0.8 NNE 4 6 2 3 1008.4 1008.3 3.0
30/06:00am 24.6 29.7 23.4 93 0.8 NNE 2 4 1 2 1008.2 1008.1 3.0
30/05:30am 24.9 30.5 23.5 92 1.0 CALM 0 2 0 1 1007.9 1007.8 3.0
30/05:00am 24.9 29.7 23.5 92 1.0 NE 4 6 2 3 1007.8 1007.7 3.0
30/04:30am 24.9 30.1 23.5 92 1.0 NNE 2 4 1 2 1007.6 1007.5 3.0
30/04:00am 24.9 29.7 23.5 92 1.0 N 4 7 2 4 1007.6 1007.5 3.0
30/03:30am 25.1 30.0 23.7 92 1.0 NNE 4 6 2 3 1007.8 1007.7 3.0
30/03:00am 24.5 29.9 23.3 93 0.8 CALM 0 2 0 1 1008.0 1007.9 3.0
30/02:30am 24.4 29.4 23.2 93 0.8 NE 2 2 1 1 1008.3 1008.2 3.0
30/02:00am 24.6 30.1 23.4 93 0.8 CALM 0 0 0 0 1008.6 1008.5 3.0
30/01:30am 24.7 30.1 23.3 92 1.0 CALM 0 0 0 0 1008.8 1008.7 3.0
30/01:00am 24.7 30.0 23.1 91 1.1 CALM 0 0 0 0 1009.1 1009.0 3.0
30/12:30am 24.6 29.1 23.0 91 1.1 NE 4 6 2 3 1009.6 1009.5 3.0
30/12:00am 24.6 29.5 23.0 91 1.1 N 2 4 1 2 1009.9 1009.8 3.0
 
Date/Time
CST
Temp
°C
App
Temp
°C
Dew
Point
°C
Rel
Hum
%
Delta-T
°C
Wind Press
QNH
hPa
Press
MSL
hPa
Rain since
9am
mm
Dir  Spd
km/h
Gust
km/h
Spd
kts
Gust
kts
29/11:30pm 24.6 30.0 23.2 92 0.9 CALM 0 0 0 0 1010.1 1010.0 3.0
29/11:00pm 24.4 28.8 22.8 91 1.1 NE 4 6 2 3 1010.0 1009.9 3.0
29/10:30pm 24.4 29.6 22.8 91 1.1 CALM 0 0 0 0 1010.0 1009.9 3.0
29/10:00pm 24.6 29.9 23.0 91 1.1 CALM 0 0 0 0 1010.0 1009.9 3.0
29/09:30pm 24.6 29.0 22.8 90 1.2 NNE 4 6 2 3 1009.6 1009.5 3.0
29/09:00pm 24.7 29.1 22.8 89 1.3 NE 4 6 2 3 1009.6 1009.5 3.0
29/08:30pm 25.1 30.3 22.8 87 1.6 CALM 0 2 0 1 1009.1 1009.0 3.0
29/08:00pm 25.4 30.6 22.9 86 1.7 CALM 0 0 0 0 1008.7 1008.6 3.0
29/07:30pm 26.0 30.9 23.1 84 2.0 SSW 2 6 1 3 1008.4 1008.3 3.0
29/07:00pm 26.2 30.9 22.7 81 2.4 WSW 2 6 1 3 1007.9 1007.8 3.0
29/06:30pm 26.4 31.1 22.7 80 2.5 W 2 6 1 3 1007.6 1007.5 3.0
29/06:00pm 26.1 29.9 22.4 80 2.5 WNW 6 11 3 6 1007.5 1007.4 3.0
29/05:30pm 26.5 30.7 23.2 82 2.3 W 6 13 3 7 1007.6 1007.5 3.0
29/05:00pm 26.2 29.9 22.5 80 2.5 NNE 7 15 4 8 1007.1 1007.0 3.0
29/04:30pm 24.2 24.6 21.7 86 1.7 NE 22 33 12 18 1007.1 1007.0 2.8
29/04:00pm 29.1 31.1 21.6 64 5.0 E 13 19 7 10 1007.8 1007.7 0.0
29/03:30pm 32.7 37.2 23.9 60 6.1 W 7 19 4 10 1006.7 1006.6 0.0
29/03:00pm 32.9 37.1 23.5 57 6.5 WSW 7 19 4 10 1006.9 1006.8 0.0
29/02:30pm 33.7 38.3 24.8 59 6.3 W 9 22 5 12 1007.3 1007.2 0.0
29/02:00pm 33.5 37.3 23.5 55 7.0 WNW 9 15 5 8 1007.8 1007.7 0.0
29/01:30pm 33.6 38.2 24.2 58 6.6 NW 7 17 4 9 1008.2 1008.1 0.0
29/01:00pm 33.1 37.5 23.4 56 6.7 W 6 11 3 6 1008.9 1008.8 0.0
29/12:30pm 32.2 36.4 23.4 59 6.1 SW 7 11 4 6 1009.4 1009.3 0.0
29/12:00pm 31.9 35.5 22.0 55 6.7 SSW 6 13 3 7 1009.6 1009.5 0.0
29/11:30am 31.4 36.0 23.2 61 5.7 S 4 9 2 5 1009.9 1009.8 0.0
29/11:00am 30.9 35.5 23.8 66 4.9 SW 6 9 3 5 1010.3 1010.2 0.0
29/10:30am 30.5 35.3 24.2 69 4.4 WNW 6 11 3 6 1010.4 1010.3 0.0
29/10:00am 29.7 34.8 24.6 74 3.6 SSW 6 9 3 5 1010.6 1010.5 0.0
29/09:30am 29.3 34.4 24.6 76 3.3 SSW 6 11 3 6 1010.7 1010.6 0.0
29/09:00am 28.6 33.9 23.7 75 3.4 SSE 2 4 1 2 1010.4 1010.3 0.0
29/08:30am 27.9 33.9 24.3 81 2.5 CALM 0 0 0 0 1010.0 1009.9 0.0
29/08:00am 26.5 32.6 24.5 89 1.4 CALM 0 0 0 0 1009.7 1009.6 0.0

Latest Capital City Observations: Canberra | Sydney | Melbourne | Brisbane | Adelaide | Perth | Hobart | Darwin

Other Formats:

Comma delimited format used in spreadsheet applications
http://www.bom.gov.au/fwo/IDD60901/IDD60901.94119.axf

JavaScript Object Notation format (JSON) in row-major order
http://www.bom.gov.au/fwo/IDD60901/IDD60901.94119.json